Time;durP1;ratioP1;P1;durP2;ratioP2;P2;SDS_P1;SDS_P2;PMS_P1;PMS_P2;Temp;Humidity;BMP_temperature;BMP_pressure;BME280_temperature;BME280_humidity;BME280_pressure;Samples;Min_cycle;Max_cycle;Signal;HPM_P1;HPM_P2
2023/03/27 00:02:07;;;;;;;2.50;0.20;;;3.60;99.90;;;;;;6241203;22;20392;-85
2023/03/27 00:04:32;;;;;;;0.60;0.20;;;3.70;99.90;;;;;;6265912;22;20346;-86
2023/03/27 00:07:04;;;;;;;4.68;0.40;;;3.70;99.90;;;;;;6266321;22;20014;-86
2023/03/27 00:09:30;;;;;;;2.38;0.15;;;3.70;99.90;;;;;;6266755;22;20131;-84
2023/03/27 00:11:56;;;;;;;1.17;0.20;;;3.60;99.90;;;;;;6266623;22;20057;-82
2023/03/27 00:14:22;;;;;;;2.50;0.30;;;3.60;99.90;;;;;;6240879;22;20489;-84
2023/03/27 00:16:49;;;;;;;1.02;0.30;;;3.60;99.90;;;;;;6241745;22;20062;-83
2023/03/27 00:19:15;;;;;;;2.67;0.20;;;3.60;99.90;;;;;;6402024;22;20021;-83
2023/03/27 00:21:43;;;;;;;6.45;0.40;;;3.50;99.90;;;;;;6266338;22;20017;-84
2023/03/27 00:24:10;;;;;;;2.92;0.25;;;3.50;99.90;;;;;;6266474;22;20022;-83
2023/03/27 00:26:39;;;;;;;2.97;0.40;;;3.50;99.90;;;;;;6401978;22;20136;-83
2023/03/27 00:29:06;;;;;;;3.17;0.35;;;3.50;99.90;;;;;;6401369;22;20018;-83
2023/03/27 00:31:32;;;;;;;1.45;0.20;;;3.40;99.90;;;;;;6401845;22;20024;-85
2023/03/27 00:33:57;;;;;;;3.38;0.30;;;3.40;99.90;;;;;;6401956;22;20017;-83
2023/03/27 00:36:29;;;;;;;2.73;0.20;;;3.40;99.90;;;;;;6266741;22;20438;-85
2023/03/27 00:38:54;;;;;;;4.35;0.43;;;3.40;99.90;;;;;;6265771;22;20029;-84
2023/03/27 00:41:21;;;;;;;2.88;0.20;;;3.40;99.90;;;;;;6266378;22;20021;-84
2023/03/27 00:43:53;;;;;;;3.35;0.50;;;3.40;99.90;;;;;;6241481;22;20017;-84
2023/03/27 00:46:42;;;;;;;1.30;0.28;;;3.40;99.90;;;;;;6266128;22;20109;-85
2023/03/27 00:49:11;;;;;;;1.40;0.20;;;3.40;99.90;;;;;;6266114;22;20334;-85
2023/03/27 00:51:40;;;;;;;2.97;0.55;;;3.40;99.90;;;;;;6239343;22;20018;-85
2023/03/27 00:54:06;;;;;;;1.75;0.25;;;3.40;99.90;;;;;;6265826;22;20014;-85
2023/03/27 00:56:37;;;;;;;3.17;0.50;;;3.30;99.90;;;;;;6266777;22;20013;-84
2023/03/27 00:59:07;;;;;;;3.70;0.43;;;3.30;99.90;;;;;;6401748;22;20020;-84
2023/03/27 01:01:33;;;;;;;1.17;0.22;;;3.30;99.90;;;;;;6265864;22;20406;-84
2023/03/27 01:04:05;;;;;;;1.42;0.10;;;3.30;99.90;;;;;;6401616;22;20014;-84
2023/03/27 01:06:31;;;;;;;3.67;0.50;;;3.30;99.90;;;;;;6266157;22;20013;-85
2023/03/27 01:08:57;;;;;;;1.92;0.47;;;3.30;99.90;;;;;;6401663;22;20013;-85
2023/03/27 01:11:41;;;;;;;3.45;0.60;;;3.30;99.90;;;;;;6265949;22;20018;-85
2023/03/27 01:14:11;;;;;;;1.15;0.13;;;3.30;99.90;;;;;;6266070;22;20021;-85
2023/03/27 01:17:07;;;;;;;1.08;0.25;;;3.30;99.90;;;;;;6266026;22;20128;-85
2023/03/27 01:19:55;;;;;;;0.55;0.20;;;3.30;99.90;;;;;;6265995;22;20009;-85
2023/03/27 01:22:30;;;;;;;0.55;0.20;;;3.30;99.90;;;;;;6401100;22;20026;-85
2023/03/27 01:25:02;;;;;;;1.45;0.32;;;3.30;99.90;;;;;;6265621;22;20014;-86
2023/03/27 01:28:04;;;;;;;5.43;0.60;;;3.30;99.90;;;;;;6266006;22;20017;-84
2023/03/27 01:30:37;;;;;;;0.77;0.20;;;3.30;99.90;;;;;;6265783;22;20171;-84
2023/03/27 01:33:40;;;;;;;1.40;0.43;;;3.30;99.90;;;;;;6401571;22;20017;-84
2023/03/27 01:36:09;;;;;;;1.90;0.40;;;3.30;99.90;;;;;;6401668;22;20041;-85
2023/03/27 01:38:57;;;;;;;0.73;0.30;;;3.30;99.90;;;;;;6265575;22;20018;-84
2023/03/27 01:41:34;;;;;;;3.92;0.30;;;3.20;99.90;;;;;;6401245;22;20339;-84
2023/03/27 01:44:12;;;;;;;1.80;0.32;;;3.20;99.90;;;;;;6401132;22;20028;-84
2023/03/27 01:46:47;;;;;;;4.47;0.43;;;3.20;99.90;;;;;;6400887;22;20014;-85
2023/03/27 01:49:23;;;;;;;3.25;0.30;;;3.10;99.90;;;;;;6400994;22;20315;-84
2023/03/27 01:52:00;;;;;;;3.20;0.30;;;3.10;99.90;;;;;;6265962;22;20369;-85
2023/03/27 01:54:31;;;;;;;3.00;0.40;;;3.10;99.90;;;;;;6401002;22;20028;-85
2023/03/27 01:57:23;;;;;;;4.57;0.47;;;3.00;99.90;;;;;;6265970;22;20347;-85
2023/03/27 02:00:16;;;;;;;3.08;0.30;;;3.00;99.90;;;;;;6400904;22;20014;-84
2023/03/27 02:02:49;;;;;;;1.67;0.30;;;3.00;99.90;;;;;;6265344;22;20025;-85
2023/03/27 02:05:28;;;;;;;2.88;0.50;;;3.00;99.90;;;;;;6265481;22;20346;-84
2023/03/27 02:08:03;;;;;;;2.60;0.20;;;3.00;99.90;;;;;;6265236;22;20114;-84
2023/03/27 02:10:38;;;;;;;0.50;0.20;;;3.00;99.90;;;;;;6265101;22;20422;-85
2023/03/27 02:13:10;;;;;;;2.72;0.35;;;3.00;99.90;;;;;;6265722;22;20049;-84
2023/03/27 02:15:39;;;;;;;4.05;0.47;;;3.00;99.90;;;;;;6400833;22;20045;-84
2023/03/27 02:18:11;;;;;;;4.65;0.70;;;3.00;99.90;;;;;;6401052;22;20443;-84
2023/03/27 02:20:38;;;;;;;2.28;0.75;;;3.10;99.90;;;;;;6401138;22;20022;-85
2023/03/27 02:23:06;;;;;;;1.90;0.47;;;3.10;99.90;;;;;;6373035;22;20102;-85
2023/03/27 02:25:46;;;;;;;1.75;0.60;;;3.10;99.90;;;;;;6341092;22;20292;-84
2023/03/27 02:28:21;;;;;;;1.65;0.30;;;3.10;99.90;;;;;;6369288;22;20288;-84
2023/03/27 02:31:53;;;;;;;1.23;0.22;;;3.10;99.90;;;;;;6369251;22;20014;-84
2023/03/27 02:34:55;;;;;;;1.33;0.70;;;3.00;99.90;;;;;;6161956;23;20020;-84
2023/03/27 02:37:30;;;;;;;3.45;0.47;;;3.00;99.90;;;;;;6340849;22;20093;-85
2023/03/27 02:40:12;;;;;;;2.05;0.40;;;3.00;99.90;;;;;;6341099;22;20451;-83
2023/03/27 02:42:57;;;;;;;2.58;0.50;;;3.00;99.90;;;;;;6340909;22;20117;-83
2023/03/27 02:45:46;;;;;;;3.78;0.50;;;3.00;99.90;;;;;;6340797;22;20018;-84
2023/03/27 02:48:52;;;;;;;1.17;0.30;;;3.00;99.90;;;;;;6340999;22;20115;-83
2023/03/27 02:51:45;;;;;;;3.67;0.40;;;3.10;99.90;;;;;;6341584;22;20026;-83
2023/03/27 02:54:18;;;;;;;5.88;0.68;;;3.10;99.90;;;;;;6342989;22;20014;-83
2023/03/27 02:56:51;;;;;;;2.65;0.45;;;3.10;99.90;;;;;;6316927;22;20017;-83
2023/03/27 02:59:41;;;;;;;3.58;0.45;;;3.00;99.90;;;;;;6343399;22;20021;-84
2023/03/27 03:02:23;;;;;;;2.38;0.52;;;3.10;99.90;;;;;;6343419;22;20014;-85
2023/03/27 03:05:04;;;;;;;2.80;0.30;;;3.00;99.90;;;;;;6343132;22;20067;-85
2023/03/27 03:07:33;;;;;;;2.17;0.70;;;3.00;99.90;;;;;;6340462;22;20021;-84
2023/03/27 03:10:04;;;;;;;0.77;0.20;;;2.90;99.90;;;;;;6343007;22;20431;-85
2023/03/27 03:12:30;;;;;;;2.78;0.47;;;2.90;99.90;;;;;;6316669;22;20015;-84
2023/03/27 03:14:55;;;;;;;2.45;0.47;;;2.90;99.90;;;;;;6316980;22;20320;-84
2023/03/27 03:17:21;;;;;;;1.87;0.50;;;2.90;99.90;;;;;;6316776;22;20017;-84
2023/03/27 03:19:48;;;;;;;1.58;0.32;;;2.90;99.90;;;;;;6290841;22;20014;-83
2023/03/27 03:22:13;;;;;;;4.20;0.50;;;2.90;99.90;;;;;;6294233;22;20020;-84
2023/03/27 03:24:54;;;;;;;0.93;0.27;;;2.90;99.90;;;;;;6403512;22;20025;-84
2023/03/27 03:27:30;;;;;;;1.17;0.35;;;2.90;99.90;;;;;;6374400;22;20013;-85
2023/03/27 03:29:55;;;;;;;2.38;0.35;;;2.90;99.90;;;;;;6374582;22;20017;-84
2023/03/27 03:32:21;;;;;;;1.92;0.50;;;2.80;99.90;;;;;;6374402;22;20014;-85
2023/03/27 03:34:47;;;;;;;2.55;0.30;;;2.80;99.90;;;;;;6347938;22;20022;-85
2023/03/27 03:37:13;;;;;;;3.50;0.60;;;2.80;99.90;;;;;;6402436;22;20020;-84
2023/03/27 03:39:39;;;;;;;1.33;0.50;;;2.70;99.90;;;;;;6402461;22;20430;-85
2023/03/27 03:42:05;;;;;;;1.50;0.40;;;2.70;99.90;;;;;;6374214;22;20100;-85
2023/03/27 03:44:30;;;;;;;2.17;0.50;;;2.70;99.90;;;;;;6373980;22;20093;-84
2023/03/27 03:47:02;;;;;;;2.63;0.40;;;2.60;99.90;;;;;;6402585;22;20018;-85
2023/03/27 03:49:28;;;;;;;1.58;0.50;;;2.60;99.90;;;;;;6373986;22;20010;-84
2023/03/27 03:51:54;;;;;;;4.60;0.60;;;2.60;99.90;;;;;;6348020;22;20070;-85
2023/03/27 03:54:20;;;;;;;0.77;0.22;;;2.60;99.90;;;;;;6347759;22;20018;-85
2023/03/27 03:56:47;;;;;;;3.90;0.50;;;2.60;99.90;;;;;;6295878;22;20335;-85
2023/03/27 03:59:13;;;;;;;4.18;0.60;;;2.60;99.90;;;;;;6348165;22;20017;-84
2023/03/27 04:01:48;;;;;;;3.63;0.55;;;2.60;99.90;;;;;;6374431;22;20335;-84
2023/03/27 04:04:38;;;;;;;1.58;0.50;;;2.60;99.90;;;;;;6347703;22;20347;-85
2023/03/27 04:07:09;;;;;;;4.55;0.73;;;2.60;99.90;;;;;;6374688;22;20019;-85
2023/03/27 04:09:35;;;;;;;3.92;0.55;;;2.60;99.90;;;;;;6374380;22;20020;-84
2023/03/27 04:12:01;;;;;;;2.25;0.70;;;2.70;99.90;;;;;;6374624;22;20097;-85
2023/03/27 04:14:26;;;;;;;4.75;0.95;;;2.70;99.90;;;;;;6348033;22;20009;-86
2023/03/27 04:16:58;;;;;;;3.28;0.80;;;2.70;99.90;;;;;;6374653;22;20020;-85
2023/03/27 04:19:24;;;;;;;3.65;0.75;;;2.70;99.90;;;;;;6374523;22;20021;-85
2023/03/27 04:21:53;;;;;;;2.67;0.57;;;2.70;99.90;;;;;;6296435;22;20451;-86
2023/03/27 04:24:19;;;;;;;2.00;0.68;;;2.70;99.90;;;;;;6258405;22;20449;-86
2023/03/27 04:26:45;;;;;;;2.55;0.73;;;2.70;99.90;;;;;;6216754;22;20347;-85
2023/03/27 04:29:11;;;;;;;3.42;0.60;;;2.60;99.90;;;;;;6241713;22;20018;-87
2023/03/27 04:31:45;;;;;;;1.70;0.40;;;2.70;99.90;;;;;;6217170;22;20087;-86
2023/03/27 04:34:11;;;;;;;2.00;0.30;;;2.70;99.90;;;;;;6266825;22;20020;-86
2023/03/27 04:36:36;;;;;;;6.07;0.55;;;2.70;99.90;;;;;;6216586;22;20049;-86
2023/03/27 04:39:02;;;;;;;4.20;0.73;;;2.70;99.90;;;;;;6241622;22;20446;-88
2023/03/27 04:41:34;;;;;;;3.42;0.55;;;2.70;99.90;;;;;;6216657;22;20017;-84
2023/03/27 04:44:00;;;;;;;1.77;0.20;;;2.70;99.90;;;;;;6241366;22;20025;-84
2023/03/27 04:46:25;;;;;;;1.08;0.20;;;2.80;99.90;;;;;;6240978;22;20014;-84
2023/03/27 04:48:51;;;;;;;1.27;0.20;;;2.80;99.90;;;;;;6190947;22;20055;-86
2023/03/27 04:51:17;;;;;;;1.97;0.30;;;2.80;99.90;;;;;;6266211;22;20435;-86
2023/03/27 04:53:42;;;;;;;1.07;0.10;;;2.80;99.90;;;;;;6241476;22;20335;-86
2023/03/27 04:56:23;;;;;;;1.00;0.10;;;2.80;99.90;;;;;;6241811;22;20285;-86
2023/03/27 04:59:02;;;;;;;1.65;0.10;;;2.60;99.90;;;;;;6266584;22;20066;-85
2023/03/27 05:01:28;;;;;;;1.17;0.20;;;2.60;99.90;;;;;;6241381;22;20540;-86
2023/03/27 05:03:55;;;;;;;2.13;0.20;;;2.60;99.90;;;;;;6240811;22;20033;-87
2023/03/27 05:06:21;;;;;;;5.53;0.45;;;2.60;99.90;;;;;;6266013;22;20328;-85
2023/03/27 05:08:47;;;;;;;0.60;0.20;;;2.60;99.90;;;;;;6267371;22;20017;-84
2023/03/27 05:11:18;;;;;;;1.50;0.20;;;2.60;99.90;;;;;;6241093;22;20261;-88
2023/03/27 05:13:44;;;;;;;1.08;0.30;;;2.60;99.90;;;;;;6241052;22;20100;-85
2023/03/27 05:16:10;;;;;;;0.68;0.30;;;2.60;99.90;;;;;;6266149;22;20017;-86
2023/03/27 05:18:37;;;;;;;0.47;0.10;;;2.60;99.90;;;;;;6216065;22;20037;-86
2023/03/27 05:21:03;;;;;;;0.85;0.10;;;2.50;99.90;;;;;;6268067;22;20009;-86
2023/03/27 05:23:38;;;;;;;1.90;0.20;;;2.50;99.90;;;;;;6266668;22;20010;-87
2023/03/27 05:26:04;;;;;;;0.52;0.17;;;2.50;99.90;;;;;;6266696;22;20025;-85
2023/03/27 05:28:31;;;;;;;0.65;0.20;;;2.40;99.90;;;;;;6241542;22;20017;-85
2023/03/27 05:30:57;;;;;;;;;;;2.40;99.90;;;;;;6267093;22;20075;-87
2023/03/27 05:33:23;;;;;;;1.95;0.20;;;2.40;99.90;;;;;;6240954;22;19913;-84
2023/03/27 05:35:49;;;;;;;0.70;0.20;;;2.40;99.90;;;;;;6242390;22;20215;-86
2023/03/27 05:38:15;;;;;;;2.67;0.40;;;2.40;99.90;;;;;;6267711;22;20446;-89
2023/03/27 05:40:41;;;;;;;1.65;0.30;;;2.40;99.90;;;;;;6242143;22;20018;-90
2023/03/27 05:43:07;;;;;;;3.67;0.40;;;2.40;99.90;;;;;;6347573;22;20463;-86
2023/03/27 05:45:33;;;;;;;1.53;0.30;;;2.40;99.90;;;;;;6241522;22;20063;-88
2023/03/27 05:48:01;;;;;;;0.53;0.10;;;2.40;99.90;;;;;;6402074;22;20014;-87
2023/03/27 05:50:32;;;;;;;1.17;0.20;;;2.40;99.90;;;;;;6400655;22;20089;-88
2023/03/27 05:53:13;;;;;;;1.85;0.20;;;2.40;99.90;;;;;;6265259;22;20018;-87
2023/03/27 05:55:39;;;;;;;1.13;0.20;;;2.40;99.90;;;;;;6239541;22;20389;-91
2023/03/27 05:58:08;;;;;;;1.17;0.20;;;2.40;99.90;;;;;;6213623;22;20018;-88
2023/03/27 06:00:35;;;;;;;0.68;0.25;;;2.40;99.90;;;;;;6264812;22;20021;-87
2023/03/27 06:03:02;;;;;;;0.98;0.30;;;2.40;99.90;;;;;;6214356;22;20014;-87
2023/03/27 06:05:48;;;;;;;0.82;0.20;;;2.40;99.90;;;;;;6265043;22;20022;-89
2023/03/27 06:08:20;;;;;;;1.00;0.20;;;2.50;99.90;;;;;;6216894;22;20014;-87
2023/03/27 06:10:45;;;;;;;2.67;0.30;;;2.50;99.90;;;;;;6266238;22;20413;-83
2023/03/27 06:13:12;;;;;;;1.63;0.30;;;2.60;99.90;;;;;;6241239;22;20006;-82
2023/03/27 06:15:40;;;;;;;1.17;0.20;;;2.70;99.90;;;;;;6267176;22;20097;-82
2023/03/27 06:18:07;;;;;;;2.75;0.40;;;2.70;99.90;;;;;;6241357;22;20008;-85
2023/03/27 06:20:34;;;;;;;2.85;0.40;;;2.80;99.90;;;;;;6266094;22;20438;-82
2023/03/27 06:25:42;;;;;;;1.45;0.30;;;3.00;99.90;;;;;;6401008;22;20021;-91
2023/03/27 06:28:09;;;;;;;1.50;0.20;;;3.10;99.90;;;;;;6242947;22;20021;-91
2023/03/27 06:30:37;;;;;;;0.77;0.30;;;3.20;99.90;;;;;;6243733;22;20093;-92
2023/03/27 06:33:04;;;;;;;2.80;0.32;;;3.30;99.90;;;;;;6269015;22;20021;-92
2023/03/27 06:35:45;;;;;;;5.53;0.35;;;3.40;99.90;;;;;;6269547;22;20041;-93
2023/03/27 06:38:16;;;;;;;2.72;0.30;;;3.40;99.90;;;;;;6243908;22;20016;-90
2023/03/27 06:40:43;;;;;;;1.75;0.30;;;3.40;99.90;;;;;;6243809;22;20166;-90
2023/03/27 06:43:10;;;;;;;3.15;0.50;;;3.40;99.90;;;;;;6243571;22;20020;-91
2023/03/27 06:45:46;;;;;;;3.50;0.40;;;3.40;99.90;;;;;;6242595;22;20145;-90
2023/03/27 06:48:15;;;;;;;1.08;0.13;;;3.40;99.90;;;;;;6268085;22;20018;-91
2023/03/27 06:50:53;;;;;;;2.50;0.15;;;3.70;99.90;;;;;;6243020;22;20432;-92
2023/03/27 06:53:45;;;;;;;0.93;0.20;;;4.40;99.90;;;;;;6218251;22;20021;-90
2023/03/27 06:56:27;;;;;;;3.42;0.60;;;5.30;99.90;;;;;;6243876;22;20010;-91
2023/03/27 06:58:53;;;;;;;1.25;0.30;;;5.90;99.90;;;;;;6243365;22;20020;-91
2023/03/27 07:01:19;;;;;;;7.43;0.93;;;6.30;99.90;;;;;;6243576;22;20096;-92
2023/03/27 07:03:44;;;;;;;2.30;0.30;;;6.40;99.90;;;;;;6243491;22;20010;-92
2023/03/27 07:06:18;;;;;;;4.27;0.53;;;6.70;99.90;;;;;;6217002;22;20097;-89
2023/03/27 07:08:43;;;;;;;3.78;0.40;;;7.10;99.90;;;;;;6243609;22;20339;-91
2023/03/27 07:11:10;;;;;;;3.10;0.43;;;7.10;99.90;;;;;;6243244;22;20017;-91
2023/03/27 07:13:36;;;;;;;1.70;0.40;;;6.60;99.90;;;;;;6268544;22;20029;-90
2023/03/27 07:16:03;;;;;;;2.23;0.40;;;6.10;99.90;;;;;;6218752;22;20045;-90
2023/03/27 07:18:28;;;;;;;2.95;0.50;;;5.70;99.90;;;;;;6269196;22;20010;-90
2023/03/27 07:20:54;;;;;;;3.73;0.33;;;5.20;99.90;;;;;;6244716;22;20048;-90
2023/03/27 07:23:20;;;;;;;1.43;0.30;;;4.90;99.90;;;;;;6194705;22;20018;-91
2023/03/27 07:25:48;;;;;;;2.90;0.40;;;4.60;99.90;;;;;;6269319;22;20462;-90
2023/03/27 07:28:17;;;;;;;1.25;0.13;;;4.40;99.90;;;;;;6220201;22;20018;-92
2023/03/27 07:30:42;;;;;;;2.20;1.50;;;4.40;99.90;;;;;;6219982;22;20010;-92
2023/03/27 07:33:09;;;;;;;0.83;0.10;;;4.50;99.90;;;;;;6244430;22;20049;-90
2023/03/27 07:35:41;;;;;;;1.33;0.30;;;4.70;99.90;;;;;;6219456;22;20021;-91
2023/03/27 07:38:07;;;;;;;2.80;0.50;;;4.90;99.90;;;;;;6243731;22;20017;-91
2023/03/27 07:40:34;;;;;;;1.85;0.10;;;5.00;99.90;;;;;;6193710;22;20062;-92
2023/03/27 07:43:00;;;;;;;;;;;5.30;99.90;;;;;;6243416;22;20014;-91
2023/03/27 07:45:26;;;;;;;1.67;0.10;;;5.60;99.90;;;;;;6245126;22;19914;-89
2023/03/27 07:47:52;;;;;;;1.23;0.20;;;5.80;99.90;;;;;;6243757;22;20018;-91
2023/03/27 07:50:20;;;;;;;1.07;0.23;;;5.50;99.90;;;;;;6244099;22;20018;-92
2023/03/27 07:52:46;;;;;;;2.42;0.40;;;5.20;99.90;;;;;;6243280;22;20089;-90
2023/03/27 07:55:16;;;;;;;3.03;0.52;;;5.10;99.90;;;;;;6243185;22;20056;-92
2023/03/27 07:57:48;;;;;;;1.65;0.10;;;5.00;99.90;;;;;;6243425;22;20014;-91
2023/03/27 08:00:16;;;;;;;3.22;0.50;;;5.00;99.90;;;;;;6242664;22;20021;-92
2023/03/27 08:02:44;;;;;;;1.95;0.22;;;5.00;99.90;;;;;;6217040;22;20018;-92
2023/03/27 08:05:22;;;;;;;0.77;0.20;;;4.90;99.90;;;;;;6218461;22;20018;-91
2023/03/27 08:07:48;;;;;;;0.60;0.30;;;4.80;99.90;;;;;;6242015;22;20469;-91
2023/03/27 08:10:14;;;;;;;1.35;0.30;;;4.80;99.90;;;;;;6242613;22;20009;-91
2023/03/27 08:12:41;;;;;;;0.30;0.10;;;4.80;99.90;;;;;;6193301;22;20017;-91
2023/03/27 08:15:08;;;;;;;3.42;0.30;;;4.80;99.90;;;;;;6217343;22;20006;-89
2023/03/27 08:17:34;;;;;;;0.22;0.10;;;4.90;99.90;;;;;;6242896;22;20377;-89
2023/03/27 08:20:02;;;;;;;1.48;0.30;;;4.90;99.90;;;;;;6216919;22;20446;-89
2023/03/27 08:22:28;;;;;;;3.33;0.43;;;4.90;99.90;;;;;;6242844;22;20037;-89
2023/03/27 08:24:54;;;;;;;1.70;0.27;;;5.00;99.90;;;;;;6242121;22;20365;-90
2023/03/27 08:27:20;;;;;;;2.73;0.30;;;5.00;99.90;;;;;;6241865;22;20075;-89
2023/03/27 08:29:46;;;;;;;2.23;0.27;;;5.00;99.90;;;;;;6217086;22;20014;-89
2023/03/27 08:32:12;;;;;;;1.30;0.30;;;5.10;99.90;;;;;;6267606;22;20013;-90
2023/03/27 08:34:39;;;;;;;1.07;0.23;;;5.10;99.90;;;;;;6267860;22;20025;-88
2023/03/27 08:37:07;;;;;;;2.58;0.32;;;5.20;99.90;;;;;;6266760;22;20334;-88
2023/03/27 08:39:33;;;;;;;3.72;0.38;;;5.20;99.90;;;;;;6265681;22;20047;-89
2023/03/27 08:42:02;;;;;;;2.07;0.30;;;5.40;99.90;;;;;;6267878;22;20071;-87
2023/03/27 08:44:30;;;;;;;1.27;0.20;;;5.50;99.90;;;;;;6401982;22;20021;-89
2023/03/27 08:47:11;;;;;;;2.53;0.32;;;5.40;99.90;;;;;;6266069;22;20014;-88
2023/03/27 08:49:52;;;;;;;1.83;0.30;;;5.20;99.90;;;;;;6400901;22;20014;-88
2023/03/27 08:52:22;;;;;;;4.50;0.30;;;5.00;99.90;;;;;;6403060;22;20061;-90
2023/03/27 08:55:06;;;;;;;2.47;0.30;;;4.90;99.90;;;;;;6403066;22;20088;-90
2023/03/27 08:57:33;;;;;;;0.60;0.20;;;4.80;99.90;;;;;;6402968;22;20043;-90
2023/03/27 09:00:03;;;;;;;1.40;0.28;;;4.70;99.90;;;;;;6266958;22;20014;-88
2023/03/27 09:02:43;;;;;;;2.85;0.30;;;4.90;99.90;;;;;;6242170;22;20481;-89
2023/03/27 09:05:41;;;;;;;0.15;0.10;;;5.00;99.90;;;;;;6403155;22;20018;-89
2023/03/27 09:08:14;;;;;;;3.17;0.20;;;5.20;99.90;;;;;;6242490;22;20022;-90
2023/03/27 09:10:48;;;;;;;1.15;0.22;;;5.30;99.90;;;;;;6267443;22;20021;-91
2023/03/27 09:13:20;;;;;;;1.35;0.20;;;5.40;99.90;;;;;;6243174;22;20009;-92
2023/03/27 09:15:48;;;;;;;2.58;0.10;;;5.40;99.90;;;;;;6246899;22;20006;-91
2023/03/27 09:18:21;;;;;;;1.98;0.28;;;5.60;99.90;;;;;;6245791;22;20018;-92
2023/03/27 09:20:55;;;;;;;0.05;0.00;;;5.70;99.90;;;;;;6268607;22;20029;-86
2023/03/27 09:23:26;;;;;;;1.58;0.20;;;5.80;99.90;;;;;;6240632;22;20009;-87
2023/03/27 09:25:59;;;;;;;0.50;0.10;;;5.70;99.90;;;;;;6266391;22;20022;-87
2023/03/27 09:28:34;;;;;;;1.60;0.13;;;5.80;99.90;;;;;;6266564;22;20016;-85
2023/03/27 09:31:16;;;;;;;3.20;0.30;;;5.70;99.90;;;;;;6241976;22;20075;-89
2023/03/27 09:33:43;;;;;;;4.30;0.30;;;5.80;99.90;;;;;;6401765;22;20018;-88
2023/03/27 09:36:09;;;;;;;;;;;5.90;99.90;;;;;;6266905;22;20014;-88
2023/03/27 09:38:38;;;;;;;1.20;0.28;;;6.00;99.90;;;;;;6240998;22;19958;-89
2023/03/27 09:41:07;;;;;;;2.42;0.20;;;6.00;99.90;;;;;;6401874;22;20074;-88
2023/03/27 09:43:43;;;;;;;1.55;0.10;;;6.10;99.90;;;;;;6266471;22;20327;-89
2023/03/27 09:46:11;;;;;;;2.13;0.25;;;6.10;99.90;;;;;;6401605;22;20447;-87
2023/03/27 09:48:49;;;;;;;1.13;0.20;;;6.10;99.90;;;;;;6401777;22;20013;-88
2023/03/27 09:51:52;;;;;;;1.98;0.30;;;6.10;99.90;;;;;;6241036;22;20045;-86
2023/03/27 09:54:20;;;;;;;4.28;0.35;;;6.20;99.90;;;;;;6265893;22;20450;-90
2023/03/27 09:57:00;;;;;;;1.30;0.20;;;6.30;99.90;;;;;;6401348;22;20393;-91
2023/03/27 09:59:50;;;;;;;1.35;0.38;;;6.40;99.90;;;;;;6401733;22;20010;-88
2023/03/27 10:02:21;;;;;;;1.42;0.15;;;6.50;99.90;;;;;;6265916;22;20454;-89
2023/03/27 10:04:57;;;;;;;0.73;0.10;;;6.50;99.90;;;;;;6266190;22;20018;-89
2023/03/27 10:07:25;;;;;;;2.40;0.20;;;6.30;99.90;;;;;;6240643;22;20020;-88
2023/03/27 10:10:10;;;;;;;2.42;0.57;;;6.20;99.90;;;;;;6400948;22;20045;-89
2023/03/27 10:12:37;;;;;;;2.60;0.40;;;6.10;99.90;;;;;;6265709;22;20014;-89
2023/03/27 10:15:26;;;;;;;4.10;0.30;;;6.30;99.90;;;;;;6401312;22;20477;-87
2023/03/27 10:17:52;;;;;;;0.55;0.10;;;6.30;99.90;;;;;;6265969;22;20442;-87
2023/03/27 10:20:19;;;;;;;2.57;0.30;;;6.30;99.90;;;;;;6401251;22;20025;-86
2023/03/27 10:22:58;;;;;;;3.58;0.50;;;6.50;99.90;;;;;;6266053;22;20063;-88
2023/03/27 10:25:33;;;;;;;0.85;0.13;;;6.50;99.90;;;;;;6401336;22;20028;-90
2023/03/27 10:28:13;;;;;;;2.92;0.10;;;6.40;99.90;;;;;;6401397;22;20018;-88
2023/03/27 10:30:39;;;;;;;2.35;0.38;;;6.40;99.90;;;;;;6266151;22;20017;-87
2023/03/27 10:33:06;;;;;;;1.43;0.23;;;6.60;99.90;;;;;;6401503;22;20018;-88
2023/03/27 10:35:52;;;;;;;1.10;0.13;;;6.70;99.90;;;;;;6266211;22;20447;-87
2023/03/27 10:38:21;;;;;;;1.73;0.40;;;6.80;99.90;;;;;;6240220;22;20316;-89
2023/03/27 10:40:49;;;;;;;2.72;0.10;;;6.90;99.90;;;;;;6401298;22;20036;-86
2023/03/27 10:43:27;;;;;;;1.65;0.00;;;6.80;99.90;;;;;;6401607;22;20377;-90
2023/03/27 10:46:14;;;;;;;0.65;0.13;;;6.70;99.90;;;;;;6265846;22;20495;-89
2023/03/27 10:49:04;;;;;;;2.20;0.20;;;6.40;99.90;;;;;;6401296;22;20379;-89
2023/03/27 10:52:08;;;;;;;1.15;0.13;;;6.20;99.90;;;;;;6265752;22;20021;-87
2023/03/27 10:54:46;;;;;;;3.88;0.30;;;6.10;99.90;;;;;;6265373;22;20072;-90
2023/03/27 10:57:33;;;;;;;3.92;0.30;;;6.20;99.90;;;;;;6265531;22;20022;-87
2023/03/27 11:00:31;;;;;;;1.60;0.15;;;6.30;99.90;;;;;;6401251;22;20348;-84
2023/03/27 11:03:05;;;;;;;3.42;0.50;;;6.50;99.90;;;;;;6265913;22;20111;-88
2023/03/27 11:05:36;;;;;;;1.00;0.10;;;6.80;99.90;;;;;;6265565;22;20021;-85
2023/03/27 11:08:30;;;;;;;2.20;0.22;;;6.90;99.90;;;;;;6265409;22;20028;-87
2023/03/27 11:11:02;;;;;;;4.05;0.40;;;6.80;99.90;;;;;;6265937;22;20067;-87
2023/03/27 11:13:32;;;;;;;0.98;0.40;;;6.70;99.90;;;;;;6402563;22;20350;-88
2023/03/27 11:16:26;;;;;;;4.85;0.30;;;6.70;99.90;;;;;;6266969;22;20018;-89
2023/03/27 11:19:09;;;;;;;1.83;0.35;;;6.70;99.90;;;;;;6267276;22;20087;-87
2023/03/27 11:21:56;;;;;;;2.10;0.20;;;6.80;99.90;;;;;;6266873;22;20435;-88
2023/03/27 11:24:31;;;;;;;2.28;0.20;;;6.40;99.90;;;;;;6267079;22;20078;-87
2023/03/27 11:27:02;;;;;;;2.05;0.35;;;6.10;99.90;;;;;;6267352;22;20018;-87
2023/03/27 11:30:03;;;;;;;1.45;0.40;;;5.90;99.90;;;;;;6267040;22;20021;-88
2023/03/27 11:32:49;;;;;;;2.25;0.30;;;5.80;99.90;;;;;;6402889;22;20447;-87
2023/03/27 11:35:22;;;;;;;3.90;0.65;;;5.80;99.90;;;;;;6241640;22;20014;-86
2023/03/27 11:38:19;;;;;;;4.97;0.22;;;6.00;99.90;;;;;;6403027;22;20014;-87
2023/03/27 11:40:46;;;;;;;0.88;0.05;;;6.20;99.90;;;;;;6354379;22;20014;-90
2023/03/27 11:43:15;;;;;;;0.93;0.30;;;6.50;99.90;;;;;;6402696;22;20485;-87
2023/03/27 11:45:54;;;;;;;5.07;0.90;;;6.60;99.90;;;;;;6269459;22;20343;-88
2023/03/27 11:48:57;;;;;;;0.40;0.00;;;6.80;99.90;;;;;;6267372;22;20067;-86
2023/03/27 11:51:35;;;;;;;1.05;0.40;;;6.90;99.90;;;;;;6265870;22;20033;-87
2023/03/27 11:54:13;;;;;;;3.72;0.50;;;7.00;99.90;;;;;;6401073;22;20018;-87
2023/03/27 11:56:38;;;;;;;;;;;6.90;99.90;;;;;;6402618;22;20014;-89
2023/03/27 11:59:29;;;;;;;1.80;0.28;;;6.90;99.90;;;;;;6400176;22;20370;-86
2023/03/27 12:02:39;;;;;;;2.75;0.30;;;7.00;99.90;;;;;;6264843;22;20435;-91
2023/03/27 12:05:04;;;;;;;2.25;0.32;;;7.10;99.90;;;;;;6319627;22;20017;-88
2023/03/27 12:08:03;;;;;;;2.47;0.30;;;7.20;99.90;;;;;;6402042;22;20074;-87
2023/03/27 12:10:35;;;;;;;2.53;0.40;;;7.30;99.90;;;;;;6379076;22;20441;-89
2023/03/27 12:13:20;;;;;;;2.70;0.43;;;7.20;99.90;;;;;;6404165;22;20443;-87
2023/03/27 12:15:55;;;;;;;2.28;0.10;;;7.20;99.90;;;;;;6272389;22;20036;-88
2023/03/27 12:18:47;;;;;;;1.27;0.40;;;7.40;99.90;;;;;;6409887;22;20074;-91
2023/03/27 12:21:16;;;;;;;3.28;0.20;;;7.50;99.90;;;;;;6408936;22;20475;-86
2023/03/27 12:23:56;;;;;;;3.75;0.50;;;7.60;99.90;;;;;;6402157;22;20021;-86
2023/03/27 12:26:57;;;;;;;0.65;0.10;;;7.60;99.90;;;;;;6266691;22;20064;-88
2023/03/27 12:29:53;;;;;;;4.78;0.30;;;7.40;99.90;;;;;;6241207;22;20091;-87
2023/03/27 12:32:41;;;;;;;1.38;0.20;;;7.30;99.90;;;;;;6266572;22;20070;-87
2023/03/27 12:35:13;;;;;;;2.20;0.22;;;7.20;99.90;;;;;;6402749;22;20400;-86
2023/03/27 12:37:57;;;;;;;2.25;0.40;;;7.20;99.90;;;;;;6267349;22;20043;-84
2023/03/27 12:40:28;;;;;;;1.77;0.30;;;7.30;99.90;;;;;;6267348;22;20018;-89
2023/03/27 12:43:28;;;;;;;1.52;0.30;;;7.40;99.90;;;;;;6267037;22;20347;-85
2023/03/27 12:46:38;;;;;;;0.68;0.17;;;7.50;99.90;;;;;;6267584;22;20020;-87
2023/03/27 12:49:09;;;;;;;1.70;0.20;;;7.40;99.90;;;;;;6241606;22;20025;-86
2023/03/27 12:51:53;;;;;;;1.80;0.25;;;7.40;99.90;;;;;;6241722;22;20010;-86
2023/03/27 12:54:26;;;;;;;2.25;0.40;;;7.50;99.90;;;;;;6242111;22;20018;-86
2023/03/27 12:56:57;;;;;;;0.73;0.13;;;7.50;99.90;;;;;;6267119;22;20018;-90
2023/03/27 12:59:27;;;;;;;1.15;0.20;;;7.60;99.90;;;;;;6267448;22;20025;-91
2023/03/27 13:02:07;;;;;;;1.38;0.20;;;7.70;99.90;;;;;;6267210;22;20014;-89
2023/03/27 13:04:40;;;;;;;2.47;0.32;;;7.70;99.90;;;;;;6267067;22;20026;-88
2023/03/27 13:07:15;;;;;;;2.67;0.63;;;7.60;99.90;;;;;;6267311;22;20024;-89
2023/03/27 13:09:55;;;;;;;2.30;0.10;;;7.50;99.90;;;;;;6267326;22;20098;-89
2023/03/27 13:12:45;;;;;;;0.90;0.17;;;7.40;99.90;;;;;;6241880;22;20021;-91
2023/03/27 13:15:38;;;;;;;1.65;0.30;;;7.40;99.90;;;;;;6267267;22;20092;-88
2023/03/27 13:18:30;;;;;;;3.58;0.40;;;7.30;99.90;;;;;;6266778;22;20021;-90
2023/03/27 13:21:02;;;;;;;3.58;0.30;;;7.20;99.90;;;;;;6242114;22;20048;-90
2023/03/27 13:23:58;;;;;;;4.28;0.43;;;7.20;99.90;;;;;;6266993;22;20451;-91
2023/03/27 13:27:20;;;;;;;1.13;0.25;;;7.20;99.90;;;;;;6267512;22;20014;-93
2023/03/27 13:29:51;;;;;;;1.15;0.20;;;7.10;99.90;;;;;;6222424;22;20385;-89
2023/03/27 13:32:36;;;;;;;2.85;0.43;;;6.90;99.90;;;;;;6242591;22;20010;-89
2023/03/27 13:35:20;;;;;;;1.73;0.35;;;6.70;99.90;;;;;;6266448;22;20075;-89
2023/03/27 13:37:59;;;;;;;1.40;0.20;;;6.70;99.90;;;;;;6238875;22;20010;-90